Time;durP1;ratioP1;P1;durP2;ratioP2;P2;SDS_P1;SDS_P2;PMS_P1;PMS_P2;Temp;Humidity;BMP_temperature;BMP_pressure;BME280_temperature;BME280_humidity;BME280_pressure;Samples;Min_cycle;Max_cycle;Signal;HPM_P1;HPM_P2
2021/03/25 00:01:15;;;;;;;62.07;40.10;;;5.30;82.90;;;;;;5015323;28;20226;-91
2021/03/25 00:03:45;;;;;;;62.80;40.43;;;5.30;83.90;;;;;;5015501;28;20182;-88
2021/03/25 00:06:18;;;;;;;56.83;38.67;;;5.20;84.60;;;;;;5015524;28;20184;-88
2021/03/25 00:08:48;;;;;;;61.73;39.77;;;5.10;84.80;;;;;;5015242;28;20663;-88
2021/03/25 00:11:20;;;;;;;56.20;34.50;;;5.10;85.20;;;;;;5032826;28;20272;-87
2021/03/25 00:13:46;;;;;;;51.30;32.80;;;5.20;84.30;;;;;;5015196;28;20189;-88
2021/03/25 00:16:12;;;;;;;56.10;35.77;;;5.10;83.50;;;;;;5015192;28;20194;-87
2021/03/25 00:18:43;;;;;;;55.07;35.73;;;5.00;83.30;;;;;;5014955;28;20242;-87
2021/03/25 00:21:14;;;;;;;65.47;38.93;;;5.00;83.00;;;;;;5019172;28;20176;-88
2021/03/25 00:23:48;;;;;;;70.43;41.63;;;5.00;82.70;;;;;;5037332;28;20202;-88
2021/03/25 00:26:19;;;;;;;76.03;45.03;;;5.00;83.50;;;;;;5019333;28;20198;-88
2021/03/25 00:28:52;;;;;;;78.63;45.03;;;4.90;83.70;;;;;;5019083;28;20210;-88
2021/03/25 00:31:30;;;;;;;59.77;39.83;;;4.90;84.40;;;;;;5018822;28;20646;-88
2021/03/25 00:34:04;;;;;;;63.63;39.33;;;4.90;84.30;;;;;;5018711;28;20217;-88
2021/03/25 00:36:37;;;;;;;59.73;37.47;;;4.80;83.90;;;;;;5018671;28;20320;-88
2021/03/25 00:39:12;;;;;;;68.37;44.23;;;4.80;83.60;;;;;;5036109;28;20242;-88
2021/03/25 00:41:39;;;;;;;81.07;49.53;;;4.80;83.70;;;;;;5018546;28;20181;-89
2021/03/25 00:44:10;;;;;;;83.27;49.63;;;4.90;87.80;;;;;;5018591;28;20243;-89
2021/03/25 00:46:40;;;;;;;77.47;48.87;;;4.90;87.80;;;;;;5018749;28;20269;-88
2021/03/25 00:49:17;;;;;;;78.77;47.87;;;4.90;87.80;;;;;;5018430;28;20208;-87
2021/03/25 00:51:54;;;;;;;81.37;49.50;;;4.90;87.80;;;;;;5018382;28;20185;-88
2021/03/25 00:54:20;;;;;;;93.47;52.10;;;4.90;88.40;;;;;;5018271;28;20185;-87
2021/03/25 00:56:46;;;;;;;93.93;51.93;;;4.80;88.90;;;;;;5018292;28;20234;-88
2021/03/25 00:59:18;;;;;;;86.40;50.97;;;5.00;89.50;;;;;;5018453;28;20219;-88
2021/03/25 01:01:49;;;;;;;94.17;51.53;;;5.00;89.70;;;;;;5018221;28;20257;-88
2021/03/25 01:04:23;;;;;;;94.80;54.83;;;5.10;89.70;;;;;;5018180;28;20718;-88
2021/03/25 01:06:54;;;;;;;105.17;57.93;;;5.20;89.30;;;;;;5018370;28;20264;-87
2021/03/25 01:09:31;;;;;;;111.83;60.10;;;5.40;89.80;;;;;;5017920;28;20208;-88
2021/03/25 01:12:04;;;;;;;111.73;61.67;;;5.60;90.30;;;;;;5018337;28;20185;-89
2021/03/25 01:14:37;;;;;;;123.70;64.63;;;5.80;90.30;;;;;;5035643;28;20177;-89
2021/03/25 01:17:05;;;;;;;114.97;63.97;;;5.90;90.40;;;;;;5035675;28;20260;-91
2021/03/25 01:19:40;;;;;;;114.97;59.87;;;5.90;90.30;;;;;;5018026;28;20205;-91
2021/03/25 01:22:12;;;;;;;108.83;62.37;;;5.90;90.30;;;;;;5018115;28;20263;-91
2021/03/25 01:24:44;;;;;;;112.87;61.73;;;6.00;90.20;;;;;;5018211;28;20518;-92
2021/03/25 01:27:17;;;;;;;115.07;61.63;;;6.00;90.20;;;;;;5017766;28;20228;-91
2021/03/25 01:29:44;;;;;;;108.70;59.73;;;6.10;90.30;;;;;;5017564;28;20708;-91
2021/03/25 01:32:15;;;;;;;115.13;60.00;;;6.10;90.10;;;;;;5034607;28;20634;-91
2021/03/25 01:34:47;;;;;;;104.50;57.33;;;6.10;90.00;;;;;;5017757;28;20257;-91
2021/03/25 01:37:20;;;;;;;103.87;56.70;;;6.10;90.00;;;;;;5035546;28;20164;-91
2021/03/25 01:39:51;;;;;;;97.63;56.93;;;6.20;90.00;;;;;;5017308;28;20217;-91
2021/03/25 01:42:27;;;;;;;97.73;55.97;;;6.20;90.00;;;;;;5017845;28;20230;-91
2021/03/25 01:45:22;;;;;;;88.43;52.33;;;6.20;89.80;;;;;;5035077;28;20684;-91
2021/03/25 01:47:54;;;;;;;88.37;52.23;;;6.30;89.80;;;;;;5017133;28;20627;-91
2021/03/25 01:50:27;;;;;;;94.00;52.17;;;6.30;89.60;;;;;;5017497;28;20186;-91
2021/03/25 01:53:33;;;;;;;87.57;50.23;;;6.30;89.50;;;;;;5017166;28;20179;-91
2021/03/25 01:56:27;;;;;;;82.27;49.03;;;6.30;89.30;;;;;;5017912;28;20252;-91
2021/03/25 01:59:17;;;;;;;82.63;47.97;;;6.40;89.00;;;;;;5034726;28;20259;-91
2021/03/25 02:02:01;;;;;;;78.53;48.33;;;6.40;89.00;;;;;;5017319;28;20179;-91
2021/03/25 02:04:59;;;;;;;77.13;45.47;;;6.40;88.90;;;;;;5017126;28;20206;-91
2021/03/25 02:07:37;;;;;;;83.23;47.50;;;6.40;88.90;;;;;;4986012;28;20249;-91
2021/03/25 02:10:41;;;;;;;80.73;45.00;;;6.40;89.00;;;;;;5034909;28;20555;-91
2021/03/25 02:13:38;;;;;;;77.93;44.83;;;6.40;88.90;;;;;;5034584;28;20664;-91
2021/03/25 02:16:14;;;;;;;81.47;44.93;;;6.30;88.80;;;;;;5034521;28;20159;-91
2021/03/25 02:18:56;;;;;;;79.37;47.27;;;6.40;88.80;;;;;;5017338;28;20206;-91
2021/03/25 02:21:34;;;;;;;77.37;43.23;;;6.40;88.60;;;;;;5016695;28;20175;-91
2021/03/25 02:24:27;;;;;;;76.57;43.50;;;6.40;88.50;;;;;;5016587;28;20174;-91
2021/03/25 02:27:20;;;;;;;73.80;43.23;;;6.50;88.70;;;;;;5035155;28;20179;-91
2021/03/25 02:30:02;;;;;;;69.77;43.43;;;6.50;88.60;;;;;;5016699;28;20202;-91
2021/03/25 02:32:38;;;;;;;70.57;42.40;;;6.50;88.60;;;;;;5016598;28;20185;-91
2021/03/25 02:35:24;;;;;;;76.93;44.47;;;6.50;88.40;;;;;;5034169;28;20655;-91
2021/03/25 02:38:04;;;;;;;78.40;44.93;;;6.50;88.40;;;;;;5033999;28;20206;-91
2021/03/25 02:40:38;;;;;;;71.87;43.07;;;6.50;88.40;;;;;;5017162;28;20168;-91
2021/03/25 02:43:31;;;;;;;78.90;44.50;;;6.50;88.20;;;;;;5016675;28;20282;-91
2021/03/25 02:46:13;;;;;;;82.30;46.17;;;6.50;88.40;;;;;;5033928;28;20532;-91
2021/03/25 02:48:49;;;;;;;66.23;42.80;;;6.50;88.40;;;;;;5016246;28;20679;-91
2021/03/25 02:51:28;;;;;;;82.10;46.17;;;6.50;88.50;;;;;;5034098;28;20693;-92
2021/03/25 02:54:01;;;;;;;71.40;45.50;;;6.60;88.50;;;;;;5016146;28;20177;-91
2021/03/25 02:56:36;;;;;;;80.20;44.80;;;6.50;88.50;;;;;;5033758;28;20185;-91
2021/03/25 02:59:13;;;;;;;72.47;46.27;;;6.50;88.60;;;;;;5016355;28;20215;-91
2021/03/25 03:01:48;;;;;;;72.77;45.17;;;6.50;88.50;;;;;;5015985;28;20178;-91
2021/03/25 03:04:27;;;;;;;74.43;43.77;;;6.50;88.70;;;;;;5033693;28;20171;-91
2021/03/25 03:07:08;;;;;;;83.50;47.47;;;6.50;88.60;;;;;;5015943;28;20179;-91
2021/03/25 03:09:44;;;;;;;78.83;45.70;;;6.50;88.50;;;;;;5033563;28;20237;-91
2021/03/25 03:12:34;;;;;;;76.23;45.43;;;6.50;88.60;;;;;;5033551;28;20174;-91
2021/03/25 03:15:27;;;;;;;95.97;48.00;;;6.50;88.60;;;;;;5016174;28;20704;-91
2021/03/25 03:18:05;;;;;;;78.83;45.90;;;6.50;88.50;;;;;;5033411;28;20290;-91
2021/03/25 03:20:49;;;;;;;79.47;47.60;;;6.50;88.40;;;;;;5033464;28;20174;-91
2021/03/25 03:23:24;;;;;;;74.57;46.13;;;6.60;88.60;;;;;;5015737;28;20182;-91
2021/03/25 03:26:03;;;;;;;75.43;45.47;;;6.50;88.70;;;;;;5015625;28;20645;-91
2021/03/25 03:28:48;;;;;;;83.63;47.70;;;6.60;88.80;;;;;;5016340;28;20567;-91
2021/03/25 03:31:25;;;;;;;78.73;46.27;;;6.50;88.90;;;;;;5016071;28;20534;-92
2021/03/25 03:34:06;;;;;;;78.63;48.03;;;6.50;89.10;;;;;;5033307;28;20185;-91
2021/03/25 03:36:39;;;;;;;84.93;50.97;;;6.50;89.00;;;;;;5033189;28;20186;-91
2021/03/25 03:39:22;;;;;;;79.57;49.37;;;6.50;89.00;;;;;;5015553;28;20218;-91
2021/03/25 03:42:23;;;;;;;77.93;48.10;;;6.50;89.00;;;;;;5015705;28;20259;-91
2021/03/25 03:44:57;;;;;;;82.33;47.17;;;6.50;89.10;;;;;;5001130;28;20185;-91
2021/03/25 03:47:34;;;;;;;75.20;45.47;;;6.60;89.00;;;;;;5033210;28;20167;-91
2021/03/25 03:50:23;;;;;;;80.23;47.50;;;6.60;89.00;;;;;;5015546;28;20254;-91
2021/03/25 03:52:50;;;;;;;75.37;44.43;;;6.60;88.80;;;;;;5015514;28;20563;-92
2021/03/25 03:55:24;;;;;;;68.00;42.80;;;6.60;88.60;;;;;;5018282;28;20183;-91
2021/03/25 03:58:15;;;;;;;79.33;46.10;;;6.60;88.70;;;;;;5019925;28;20219;-92
2021/03/25 04:01:13;;;;;;;83.43;44.23;;;6.70;89.10;;;;;;5037036;28;20178;-91
2021/03/25 04:03:48;;;;;;;78.50;44.20;;;6.70;89.10;;;;;;5014374;28;20655;-91
2021/03/25 04:06:54;;;;;;;78.30;44.30;;;6.80;89.20;;;;;;5037039;28;20162;-91
2021/03/25 04:09:34;;;;;;;84.33;46.80;;;6.80;89.20;;;;;;5007408;28;20613;-91
2021/03/25 04:12:18;;;;;;;78.20;44.97;;;6.80;89.20;;;;;;5019053;28;20186;-91
2021/03/25 04:14:54;;;;;;;72.57;42.47;;;6.80;89.20;;;;;;5036791;28;20171;-91
2021/03/25 04:17:33;;;;;;;82.33;44.20;;;6.70;89.20;;;;;;5036701;28;20179;-91
2021/03/25 04:20:11;;;;;;;89.20;44.43;;;6.80;89.60;;;;;;5019046;28;20178;-91
2021/03/25 04:22:52;;;;;;;84.17;43.67;;;6.80;89.80;;;;;;5018884;28;20180;-91
2021/03/25 04:25:33;;;;;;;72.67;43.23;;;6.80;89.70;;;;;;5018989;28;20544;-91
2021/03/25 04:28:09;;;;;;;72.10;41.40;;;6.80;89.70;;;;;;5036519;28;20199;-91
2021/03/25 04:30:45;;;;;;;75.53;41.67;;;6.80;89.50;;;;;;5018787;28;20180;-91
2021/03/25 04:33:22;;;;;;;75.47;42.20;;;6.80;89.70;;;;;;5018902;28;20218;-92
2021/03/25 04:35:55;;;;;;;74.20;42.30;;;6.80;89.90;;;;;;5036490;28;20169;-91
2021/03/25 04:38:32;;;;;;;78.60;42.87;;;6.80;90.10;;;;;;5036332;28;20686;-91
2021/03/25 04:41:07;;;;;;;84.53;45.13;;;6.80;90.00;;;;;;5036359;28;20164;-91
2021/03/25 04:43:40;;;;;;;95.53;47.57;;;6.80;89.80;;;;;;5019371;28;20539;-91
2021/03/25 04:46:36;;;;;;;90.77;47.83;;;6.80;90.00;;;;;;5018516;28;20176;-91
2021/03/25 04:49:12;;;;;;;92.27;45.97;;;6.80;90.00;;;;;;5036150;28;20203;-91
2021/03/25 04:51:43;;;;;;;82.27;45.33;;;6.80;90.00;;;;;;5036070;28;20171;-91
2021/03/25 04:54:38;;;;;;;85.67;45.60;;;6.80;89.70;;;;;;5036141;28;20178;-91
2021/03/25 04:57:24;;;;;;;86.00;47.33;;;6.70;89.60;;;;;;5011682;28;20272;-91
2021/03/25 04:59:57;;;;;;;94.67;47.33;;;6.70;89.60;;;;;;5018201;28;20191;-91
2021/03/25 05:02:34;;;;;;;96.13;49.23;;;6.70;89.70;;;;;;5018249;28;20179;-91
2021/03/25 05:05:07;;;;;;;81.30;46.53;;;6.70;89.70;;;;;;5018998;28;20172;-91
2021/03/25 05:07:42;;;;;;;85.30;47.47;;;6.70;89.80;;;;;;5018355;28;20190;-91
2021/03/25 05:10:27;;;;;;;87.57;45.83;;;6.70;89.70;;;;;;5018776;28;20173;-91
2021/03/25 05:13:00;;;;;;;85.70;46.00;;;6.70;89.60;;;;;;5018257;28;20175;-91
2021/03/25 05:15:33;;;;;;;88.07;45.53;;;6.70;89.70;;;;;;5018660;28;20195;-91
2021/03/25 05:18:16;;;;;;;84.30;45.00;;;6.70;89.90;;;;;;5035455;28;20256;-91
2021/03/25 05:21:08;;;;;;;87.37;43.40;;;6.60;89.90;;;;;;5018742;28;20512;-91
2021/03/25 05:24:11;;;;;;;78.07;41.80;;;6.70;89.80;;;;;;5034525;28;20183;-91
2021/03/25 05:26:50;;;;;;;76.70;40.83;;;6.60;89.90;;;;;;5035448;28;20173;-91
2021/03/25 05:29:27;;;;;;;77.70;41.73;;;6.60;89.80;;;;;;5035412;28;20254;-91
2021/03/25 05:32:02;;;;;;;75.57;42.40;;;6.60;89.90;;;;;;5035452;28;20564;-91
2021/03/25 05:34:37;;;;;;;76.80;40.73;;;6.70;89.90;;;;;;5017744;28;20226;-91
2021/03/25 05:37:12;;;;;;;78.20;42.17;;;6.70;90.10;;;;;;5017998;28;20270;-91
2021/03/25 05:39:44;;;;;;;71.40;40.60;;;6.60;90.20;;;;;;5035174;28;20587;-91
2021/03/25 05:42:28;;;;;;;76.93;39.50;;;6.70;90.30;;;;;;5035270;28;20178;-91
2021/03/25 05:45:08;;;;;;;72.83;39.90;;;6.60;90.40;;;;;;5035205;28;20176;-91
2021/03/25 05:47:56;;;;;;;71.40;39.27;;;6.70;90.50;;;;;;5035108;28;20642;-91
2021/03/25 05:50:57;;;;;;;75.47;39.70;;;6.60;90.60;;;;;;5035402;28;20612;-91
2021/03/25 05:53:44;;;;;;;78.83;38.97;;;6.60;90.80;;;;;;5033848;28;20193;-91
2021/03/25 05:56:52;;;;;;;72.27;39.13;;;6.50;90.90;;;;;;5017180;28;20228;-91
2021/03/25 05:59:29;;;;;;;80.53;39.30;;;6.60;90.80;;;;;;5034744;28;20206;-91
2021/03/25 06:02:19;;;;;;;73.20;40.37;;;6.60;90.80;;;;;;5034883;28;20542;-91
2021/03/25 06:04:51;;;;;;;63.30;35.80;;;6.60;90.80;;;;;;5034808;28;20167;-91
2021/03/25 06:07:40;;;;;;;67.80;37.47;;;6.50;90.90;;;;;;5017194;28;20172;-91
2021/03/25 06:10:24;;;;;;;82.37;38.43;;;6.60;90.60;;;;;;5034788;28;20187;-91
2021/03/25 06:13:20;;;;;;;74.97;38.60;;;6.60;90.60;;;;;;5034614;28;20173;-91
2021/03/25 06:16:40;;;;;;;71.13;39.13;;;6.60;90.80;;;;;;5034673;28;20162;-91
2021/03/25 06:19:30;;;;;;;74.10;39.07;;;6.60;90.70;;;;;;5001795;28;20222;-91
2021/03/25 06:22:29;;;;;;;63.97;38.43;;;6.60;90.60;;;;;;5033161;28;20179;-91
2021/03/25 06:25:24;;;;;;;66.70;36.83;;;6.70;90.60;;;;;;5017181;28;20171;-91
2021/03/25 06:28:22;;;;;;;63.37;33.63;;;6.70;90.50;;;;;;5034502;28;20200;-91
2021/03/25 06:31:01;;;;;;;59.30;33.57;;;6.70;89.70;;;;;;5033280;28;20233;-91
2021/03/25 06:33:38;;;;;;;63.70;35.10;;;6.70;89.60;;;;;;5033622;28;20172;-91
2021/03/25 06:36:14;;;;;;;61.63;35.17;;;6.80;89.60;;;;;;5034155;28;20174;-91
2021/03/25 06:38:58;;;;;;;60.87;34.50;;;6.70;89.80;;;;;;5016106;28;20265;-91
2021/03/25 06:41:51;;;;;;;50.80;31.73;;;6.80;89.20;;;;;;5016384;28;20179;-91
2021/03/25 06:44:27;;;;;;;59.43;34.63;;;6.80;89.30;;;;;;5016412;28;20262;-91
2021/03/25 06:47:16;;;;;;;52.23;32.07;;;6.90;88.90;;;;;;5016308;28;20178;-91
2021/03/25 06:49:50;;;;;;;53.20;31.70;;;7.00;88.90;;;;;;5016245;28;20598;-91
2021/03/25 06:52:31;;;;;;;49.30;28.03;;;6.90;88.30;;;;;;5016223;28;20194;-91
2021/03/25 06:55:07;;;;;;;49.40;27.97;;;6.90;87.80;;;;;;5033892;28;20233;-91
2021/03/25 06:57:51;;;;;;;53.43;29.40;;;7.00;87.60;;;;;;5034048;28;20171;-91
2021/03/25 07:00:22;;;;;;;52.83;30.77;;;7.00;87.50;;;;;;5016122;28;20168;-91
2021/03/25 07:02:56;;;;;;;58.97;33.10;;;7.00;87.20;;;;;;5016337;28;20712;-91
2021/03/25 07:05:32;;;;;;;55.90;32.10;;;7.00;87.30;;;;;;5016267;28;20179;-91
2021/03/25 07:08:19;;;;;;;52.60;33.67;;;7.00;87.40;;;;;;5015902;28;20198;-91
2021/03/25 07:10:54;;;;;;;58.53;33.93;;;7.10;87.60;;;;;;5016071;28;20175;-91
2021/03/25 07:14:02;;;;;;;52.80;32.07;;;7.20;87.90;;;;;;5033527;28;20207;-91
2021/03/25 07:16:45;;;;;;;52.10;31.87;;;7.10;87.60;;;;;;5015828;28;20719;-91
2021/03/25 07:19:21;;;;;;;52.13;30.33;;;7.20;88.10;;;;;;5015824;28;20304;-91
2021/03/25 07:22:14;;;;;;;60.63;32.03;;;7.10;87.10;;;;;;5015945;28;20230;-90
2021/03/25 07:24:45;;;;;;;56.13;31.57;;;7.10;87.10;;;;;;5033553;28;20174;-90
2021/03/25 07:27:17;;;;;;;55.23;32.80;;;7.20;87.40;;;;;;5033338;28;20171;-91
2021/03/25 07:29:58;;;;;;;50.57;28.97;;;7.30;87.30;;;;;;5014698;28;20204;-91
2021/03/25 07:32:54;;;;;;;52.00;30.60;;;7.40;86.50;;;;;;5016225;28;20179;-91
2021/03/25 07:35:43;;;;;;;47.10;29.97;;;7.40;86.30;;;;;;5015767;28;20196;-91
2021/03/25 07:38:29;;;;;;;55.07;31.77;;;7.50;86.00;;;;;;5015371;28;20247;-91
2021/03/25 07:41:10;;;;;;;53.47;32.73;;;7.50;86.20;;;;;;5015626;28;20176;-92
2021/03/25 07:44:14;;;;;;;59.30;33.13;;;7.50;85.90;;;;;;5015396;28;20176;-91
2021/03/25 07:46:46;;;;;;;58.90;31.83;;;7.50;86.00;;;;;;5032228;28;20184;-91
2021/03/25 07:49:17;;;;;;;51.70;31.80;;;7.50;86.00;;;;;;5016163;28;20231;-91
2021/03/25 07:51:50;;;;;;;66.83;35.77;;;7.40;86.00;;;;;;5015878;28;20179;-91
2021/03/25 07:54:26;;;;;;;56.63;31.43;;;7.40;85.70;;;;;;5016024;28;20184;-91
2021/03/25 07:57:14;;;;;;;65.80;34.43;;;7.40;85.30;;;;;;5033159;28;20190;-90
2021/03/25 07:59:53;;;;;;;53.13;31.67;;;7.50;85.60;;;;;;5015254;28;20215;-91
2021/03/25 08:02:26;;;;;;;58.50;32.10;;;7.70;85.90;;;;;;5015266;28;20180;-91
2021/03/25 08:04:56;;;;;;;55.57;30.63;;;7.70;85.30;;;;;;5033297;28;20165;-91
2021/03/25 08:07:24;;;;;;;60.23;31.93;;;7.80;85.20;;;;;;5015605;28;20180;-90
2021/03/25 08:10:00;;;;;;;55.67;34.43;;;7.70;85.40;;;;;;5015549;28;20592;-91
2021/03/25 08:12:36;;;;;;;47.23;30.13;;;7.70;85.40;;;;;;5032882;28;20184;-89
2021/03/25 08:15:17;;;;;;;56.67;33.30;;;7.70;85.00;;;;;;5015315;28;20258;-88
2021/03/25 08:17:57;;;;;;;55.93;33.50;;;7.80;85.20;;;;;;5014972;28;20210;-88
2021/03/25 08:20:26;;;;;;;52.70;31.07;;;7.70;84.80;;;;;;5015247;28;20172;-91
2021/03/25 08:23:09;;;;;;;62.27;34.47;;;7.70;84.70;;;;;;5015057;28;20169;-91
2021/03/25 08:25:41;;;;;;;59.00;31.93;;;7.70;85.40;;;;;;5015201;28;20203;-92
2021/03/25 08:28:20;;;;;;;54.47;33.17;;;7.90;85.20;;;;;;5016003;28;20196;-91
2021/03/25 08:31:16;;;;;;;51.97;33.60;;;7.90;84.60;;;;;;5015261;28;20185;-91
2021/03/25 08:33:47;;;;;;;52.83;32.30;;;7.90;84.60;;;;;;5031515;28;20314;-92
2021/03/25 08:36:16;;;;;;;57.47;32.87;;;8.00;84.50;;;;;;5015646;28;20682;-91
2021/03/25 08:39:07;;;;;;;49.37;31.07;;;8.10;84.80;;;;;;5102256;22;20207;-85
2021/03/25 08:42:15;;;;;;;51.40;30.43;;;8.10;83.70;;;;;;5055848;28;20168;-84
2021/03/25 08:45:20;;;;;;;61.33;35.53;;;8.20;84.00;;;;;;5056240;28;20183;-84
2021/03/25 08:48:10;;;;;;;49.97;30.40;;;8.30;84.40;;;;;;5054842;28;20176;-84
2021/03/25 08:51:04;;;;;;;54.13;31.43;;;8.30;83.10;;;;;;5055995;28;20269;-84
2021/03/25 08:53:54;;;;;;;50.17;30.23;;;8.30;82.70;;;;;;5038129;28;20176;-84
2021/03/25 08:56:31;;;;;;;49.97;31.90;;;8.40;82.80;;;;;;5038003;28;20176;-84
2021/03/25 08:59:19;;;;;;;48.93;32.07;;;8.60;82.60;;;;;;5055801;28;20596;-84
2021/03/25 09:02:12;;;;;;;52.20;32.03;;;8.50;81.70;;;;;;5038039;28;20548;-84
2021/03/25 09:05:04;;;;;;;53.60;32.87;;;8.70;82.60;;;;;;5056261;28;20176;-84
2021/03/25 09:07:36;;;;;;;46.43;31.87;;;8.80;81.70;;;;;;5055770;28;20172;-85
2021/03/25 09:10:18;;;;;;;54.33;35.00;;;8.90;81.90;;;;;;5055696;28;20188;-84
2021/03/25 09:12:54;;;;;;;53.53;34.07;;;9.10;81.70;;;;;;5037756;28;20168;-84
2021/03/25 09:15:25;;;;;;;53.27;34.40;;;9.20;82.00;;;;;;5037809;28;20263;-84
2021/03/25 09:18:11;;;;;;;54.43;34.83;;;9.30;80.50;;;;;;5037562;28;20200;-84
2021/03/25 09:20:47;;;;;;;50.40;33.67;;;9.30;79.90;;;;;;5055709;28;20552;-84
2021/03/25 09:23:46;;;;;;;53.73;35.73;;;9.20;80.30;;;;;;5037393;28;20183;-84
2021/03/25 09:26:16;;;;;;;57.77;34.80;;;9.30;80.80;;;;;;5055430;28;20579;-84
2021/03/25 09:29:06;;;;;;;57.33;36.73;;;9.50;81.20;;;;;;5055405;28;20223;-84
2021/03/25 09:32:01;;;;;;;53.17;35.43;;;9.70;80.40;;;;;;5056022;28;20169;-84
2021/03/25 09:34:49;;;;;;;55.17;34.10;;;9.70;79.30;;;;;;5055109;28;20180;-84
2021/03/25 09:37:32;;;;;;;58.23;38.80;;;9.70;79.30;;;;;;5055218;28;20206;-83
2021/03/25 09:40:32;;;;;;;66.90;37.23;;;9.80;79.90;;;;;;5054835;28;20207;-84
2021/03/25 09:43:29;;;;;;;57.00;36.63;;;10.00;79.50;;;;;;5054253;28;20157;-84
2021/03/25 09:46:22;;;;;;;53.47;34.77;;;10.00;79.10;;;;;;5036043;28;20174;-84
2021/03/25 09:48:57;;;;;;;65.30;37.83;;;10.00;78.80;;;;;;5053910;28;20198;-84
2021/03/25 09:51:33;;;;;;;53.67;37.33;;;10.10;79.00;;;;;;5053580;28;20600;-85
2021/03/25 09:54:00;;;;;;;61.93;38.60;;;10.40;78.70;;;;;;5054270;28;20188;-85
2021/03/25 09:56:32;;;;;;;59.47;39.13;;;10.50;78.40;;;;;;5054072;28;20558;-86
2021/03/25 09:59:04;;;;;;;52.80;37.73;;;10.70;78.10;;;;;;5053551;28;20211;-85
2021/03/25 10:01:52;;;;;;;53.73;33.43;;;10.60;76.90;;;;;;5035810;28;20207;-85
2021/03/25 10:04:41;;;;;;;51.30;34.87;;;10.80;76.50;;;;;;5035756;28;20176;-85
2021/03/25 10:07:24;;;;;;;67.97;37.27;;;10.90;76.20;;;;;;5035801;28;20180;-85
2021/03/25 10:09:58;;;;;;;46.57;32.73;;;11.00;76.00;;;;;;5053538;28;20283;-85
2021/03/25 10:12:54;;;;;;;49.97;34.23;;;11.20;75.30;;;;;;5053626;28;20268;-85
2021/03/25 10:15:44;;;;;;;48.60;33.73;;;11.40;75.10;;;;;;5046134;28;20196;-85
2021/03/25 10:18:17;;;;;;;42.43;29.93;;;11.70;75.10;;;;;;5035445;28;20200;-85
2021/03/25 10:21:00;;;;;;;43.13;28.70;;;11.90;73.70;;;;;;5053589;28;20200;-85
2021/03/25 10:23:41;;;;;;;40.90;27.90;;;12.00;72.30;;;;;;5053335;28;20632;-84
2021/03/25 10:26:13;;;;;;;38.67;25.90;;;11.80;72.00;;;;;;5035490;28;20202;-84
2021/03/25 10:28:58;;;;;;;41.97;27.30;;;11.50;72.90;;;;;;5035465;28;20184;-84
2021/03/25 10:31:52;;;;;;;45.73;28.27;;;11.40;72.80;;;;;;5053302;28;20180;-84
2021/03/25 10:34:30;;;;;;;41.70;26.73;;;11.80;72.70;;;;;;5035616;28;20255;-84
2021/03/25 10:37:24;;;;;;;41.30;26.97;;;11.80;72.90;;;;;;5053379;28;20176;-83
2021/03/25 10:40:10;;;;;;;38.40;26.03;;;12.00;71.10;;;;;;4995082;28;709817;-83
2021/03/25 10:42:43;;;;;;;38.93;24.60;;;11.90;70.40;;;;;;5054138;28;20636;-83
2021/03/25 10:45:20;;;;;;;31.00;22.57;;;11.70;71.80;;;;;;5054017;28;20270;-83
2021/03/25 10:48:18;;;;;;;34.07;22.63;;;11.80;71.30;;;;;;5036011;28;20603;-83
2021/03/25 10:50:57;;;;;;;35.90;23.20;;;11.80;70.40;;;;;;5030375;28;20207;-84
2021/03/25 10:53:34;;;;;;;32.57;21.23;;;11.90;71.50;;;;;;5035895;28;20179;-84
2021/03/25 10:56:20;;;;;;;30.87;21.80;;;12.20;71.70;;;;;;5053811;28;20176;-84
2021/03/25 10:59:17;;;;;;;38.47;23.73;;;12.10;68.70;;;;;;5035619;28;20280;-84
2021/03/25 11:02:01;;;;;;;35.50;22.23;;;12.10;69.50;;;;;;5053904;28;20183;-84
2021/03/25 11:04:34;;;;;;;31.23;22.73;;;12.00;69.40;;;;;;5053716;28;20180;-84
2021/03/25 11:07:23;;;;;;;37.13;22.60;;;12.00;70.50;;;;;;5035831;28;20263;-84
2021/03/25 11:09:55;;;;;;;34.40;23.13;;;12.30;69.50;;;;;;5035558;28;20731;-84
2021/03/25 11:12:34;;;;;;;30.43;21.23;;;12.10;68.60;;;;;;5035838;28;20211;-84
2021/03/25 11:15:21;;;;;;;30.17;20.20;;;12.10;69.20;;;;;;5035691;28;20218;-84
2021/03/25 11:17:54;;;;;;;28.23;20.80;;;12.10;69.00;;;;;;5035732;28;20176;-84
2021/03/25 11:20:32;;;;;;;29.30;21.47;;;12.20;69.30;;;;;;5035717;28;20192;-84
2021/03/25 11:23:04;;;;;;;33.60;20.33;;;12.00;69.00;;;;;;5053717;28;20172;-84
2021/03/25 11:25:40;;;;;;;28.87;19.17;;;12.40;69.00;;;;;;5053571;28;20167;-84
2021/03/25 11:28:19;;;;;;;26.33;17.67;;;12.80;66.90;;;;;;5035681;28;20175;-83
2021/03/25 11:30:54;;;;;;;31.60;18.13;;;12.80;65.20;;;;;;5053343;28;20226;-84
2021/03/25 11:33:33;;;;;;;21.67;16.93;;;13.20;65.80;;;;;;5035285;28;20640;-84
2021/03/25 11:36:06;;;;;;;26.60;17.27;;;13.30;63.30;;;;;;5053166;28;20183;-84
2021/03/25 11:38:41;;;;;;;28.80;17.93;;;13.10;63.20;;;;;;5053209;28;20576;-84
2021/03/25 11:41:22;;;;;;;24.23;15.93;;;13.40;64.70;;;;;;5053473;28;20172;-84
2021/03/25 11:43:59;;;;;;;23.67;16.37;;;13.70;62.90;;;;;;5053420;28;20262;-83
2021/03/25 11:46:45;;;;;;;22.33;15.03;;;13.60;63.30;;;;;;5053432;28;20190;-84
2021/03/25 11:49:24;;;;;;;21.03;12.60;;;13.80;61.70;;;;;;5053066;28;20310;-84
2021/03/25 11:52:00;;;;;;;20.17;12.57;;;13.80;59.60;;;;;;5053456;28;20204;-84
2021/03/25 11:54:42;;;;;;;18.07;12.57;;;14.00;60.20;;;;;;5035286;28;20183;-84
2021/03/25 11:57:29;;;;;;;18.30;11.83;;;13.80;59.50;;;;;;5053388;28;20164;-84
2021/03/25 12:00:12;;;;;;;19.53;12.53;;;14.00;59.20;;;;;;5053022;28;20215;-84
2021/03/25 12:02:52;;;;;;;20.97;12.90;;;13.90;59.70;;;;;;5053075;28;20172;-84
2021/03/25 12:05:39;;;;;;;18.93;12.47;;;13.60;59.10;;;;;;5035179;28;20214;-84
2021/03/25 12:08:21;;;;;;;21.13;13.37;;;13.30;60.10;;;;;;5052997;28;20538;-84
2021/03/25 12:11:04;;;;;;;19.43;12.80;;;13.60;61.90;;;;;;5035014;28;20245;-84
2021/03/25 12:13:37;;;;;;;17.57;13.20;;;13.80;59.70;;;;;;5052780;28;20176;-84
2021/03/25 12:16:11;;;;;;;19.80;13.53;;;13.60;59.60;;;;;;5055553;28;20160;-84
2021/03/25 12:18:46;;;;;;;21.23;13.80;;;13.30;59.70;;;;;;5038899;28;20674;-84
2021/03/25 12:21:20;;;;;;;18.13;12.67;;;13.50;60.80;;;;;;5038879;28;20550;-84
2021/03/25 12:23:57;;;;;;;18.67;11.53;;;13.80;58.80;;;;;;5056814;28;20183;-84
2021/03/25 12:26:32;;;;;;;17.17;11.20;;;14.00;57.50;;;;;;5038807;28;20172;-85
2021/03/25 12:29:04;;;;;;;18.10;11.30;;;13.70;56.10;;;;;;5056561;28;20573;-84
2021/03/25 12:31:43;;;;;;;17.00;11.67;;;13.40;57.00;;;;;;5038833;28;20180;-84
2021/03/25 12:34:19;;;;;;;13.83;10.30;;;13.50;57.10;;;;;;5056593;28;20199;-84
2021/03/25 12:36:52;;;;;;;14.53;10.90;;;13.60;57.60;;;;;;5056950;28;20168;-84
2021/03/25 12:39:24;;;;;;;17.80;10.50;;;13.90;56.70;;;;;;5038941;28;20302;-84
2021/03/25 12:41:57;;;;;;;15.40;11.17;;;14.10;54.10;;;;;;5056430;28;20546;-84
2021/03/25 12:44:37;;;;;;;16.93;11.60;;;14.30;54.80;;;;;;5056429;28;20184;-84
2021/03/25 12:47:11;;;;;;;19.57;11.60;;;14.00;56.10;;;;;;5056334;28;20242;-84
2021/03/25 12:49:44;;;;;;;22.20;11.67;;;13.70;56.00;;;;;;5038361;28;20200;-83
2021/03/25 12:52:18;;;;;;;16.50;10.83;;;13.30;56.50;;;;;;5038307;28;20180;-83
2021/03/25 12:54:51;;;;;;;16.67;11.57;;;13.20;57.40;;;;;;5056944;28;20195;-83
2021/03/25 12:57:26;;;;;;;15.73;11.13;;;13.20;57.50;;;;;;5056825;28;20521;-84
2021/03/25 13:00:01;;;;;;;16.80;11.63;;;13.10;58.20;;;;;;5038055;28;20755;-84
2021/03/25 13:02:32;;;;;;;17.60;11.60;;;13.50;58.30;;;;;;5039592;28;20509;-83
2021/03/25 13:05:05;;;;;;;19.07;12.10;;;13.80;57.80;;;;;;5056226;28;20184;-84
2021/03/25 13:07:33;;;;;;;18.80;12.47;;;13.70;56.70;;;;;;5037991;28;20317;-84
2021/03/25 13:10:02;;;;;;;18.73;13.00;;;13.60;56.50;;;;;;5056124;28;20238;-83
2021/03/25 13:12:33;;;;;;;18.80;13.53;;;13.80;56.20;;;;;;5055815;28;20180;-84
2021/03/25 13:15:04;;;;;;;26.43;13.33;;;14.30;54.40;;;;;;5055661;28;20188;-84
2021/03/25 13:17:34;;;;;;;21.03;13.60;;;14.60;54.90;;;;;;5055753;28;20229;-84
2021/03/25 13:20:09;;;;;;;20.77;11.97;;;14.70;54.60;;;;;;5055468;28;20196;-84
2021/03/25 13:22:41;;;;;;;18.77;11.47;;;14.60;54.90;;;;;;5055602;28;20182;-84
2021/03/25 13:25:20;;;;;;;15.50;11.00;;;14.70;52.40;;;;;;5055825;28;20153;-84
2021/03/25 13:27:49;;;;;;;19.63;11.87;;;14.80;54.50;;;;;;5037090;28;20167;-84
2021/03/25 13:30:20;;;;;;;17.73;11.97;;;14.60;53.30;;;;;;5055294;28;20184;-84
2021/03/25 13:32:54;;;;;;;18.63;11.87;;;14.40;54.20;;;;;;5056776;28;20310;-84
2021/03/25 13:35:30;;;;;;;16.93;12.33;;;14.50;55.10;;;;;;5055542;28;20172;-84
2021/03/25 13:38:07;;;;;;;21.43;13.27;;;14.30;54.80;;;;;;5037751;28;20200;-84